WetterOnline ( https://www.wetteronline.de )

Wetter aktuell Nordschwarzwald

Aktuelles Wetter: Freudenstadt (801m)

6-stündlich | Neueste Meldungen
Ortszeit Temperatur Wetter
Fr, 20.05. 14:00 25.8° C leicht bewölkt
Fr, 20.05. 8:00 20.0° C leicht bewölkt
Fr, 20.05. 2:00 15.5° C bewölkt
Do, 19.05. 20:00 18.0° C bedeckt
Do, 19.05. 14:00 26.3° C leicht bewölkt
Do, 19.05. 8:00 18.5° C leicht bewölkt
Do, 19.05. 2:00 15.1° C wolkig
Mi, 18.05. 20:00 21.8° C leicht bewölkt
Ortszeit Temperatur Wetter
Fr, 20.05. 18:10 24.2° C bedeckt
Fr, 20.05. 18:00 24.5° C wolkig
Fr, 20.05. 17:50 24.5° C wolkig
Fr, 20.05. 17:40 24.1° C bedeckt
Fr, 20.05. 17:30 26.0° C leicht bewölkt
Fr, 20.05. 17:20 26.0° C leicht bewölkt
Fr, 20.05. 17:00 27.0° C wolkig
Fr, 20.05. 16:30 26.6° C bewölkt
Fr, 20.05. 16:00 27.6° C leicht bewölkt
Fr, 20.05. 15:30 27.1° C wolkig
Ortszeit Relative Feuchte Sichtweite
Fr, 20.05. 14:00 35% 40 km
Fr, 20.05. 8:00 57% 50 km
Fr, 20.05. 2:00 82% 45 km
Do, 19.05. 20:00 84% 55 km
Do, 19.05. 14:00 35% 65 km
Do, 19.05. 8:00 58% 60 km
Do, 19.05. 2:00 66% 55 km
Mi, 18.05. 20:00 44% >70 km
Ortszeit Relative Feuchte Sichtweite
Fr, 20.05. 18:10 43% -
Fr, 20.05. 18:00 44% 30 km
Fr, 20.05. 17:50 44% -
Fr, 20.05. 17:40 44% -
Fr, 20.05. 17:30 39% 65 km
Fr, 20.05. 17:20 39% -
Fr, 20.05. 17:00 37% 65 km
Fr, 20.05. 16:30 34% 60 km
Fr, 20.05. 16:00 30% 60 km
Fr, 20.05. 15:30 30% 65 km
Ortszeit Niederschlagsmenge Niederschlagsart
Fr, 20.05. 14:00 0.0 l/m2 in 6 Std. -
Fr, 20.05. 8:00 0.0 l/m2 in 12 Std. -
Fr, 20.05. 2:00 0.0 l/m2 in 6 Std. -
Do, 19.05. 20:00 1 l/m2 in 12 Std. Regen
Do, 19.05. 14:00 0.0 l/m2 in 6 Std. -
Do, 19.05. 8:00 0.0 l/m2 in 12 Std. -
Do, 19.05. 2:00 0.0 l/m2 in 6 Std. -
Mi, 18.05. 20:00 0.0 l/m2 in 12 Std. -
Ortszeit Niederschlagsmenge Niederschlagsart
Fr, 20.05. 18:10 keine Meldung -
Fr, 20.05. 18:00 0.1 l/m2 in 1 Std. Regen
Fr, 20.05. 17:50 keine Meldung -
Fr, 20.05. 17:40 keine Meldung -
Fr, 20.05. 17:30 0.0 l/m2 in 1 Std. -
Fr, 20.05. 17:20 keine Meldung -
Fr, 20.05. 17:00 0.0 l/m2 in 1 Std. -
Fr, 20.05. 16:30 0.0 l/m2 in 1 Std. -
Fr, 20.05. 16:00 0.0 l/m2 in 1 Std. -
Fr, 20.05. 15:30 0.0 l/m2 in 1 Std. -
Ortszeit Stärke Spitze Richtung
km/h Bft. km/h Grad Sektor
Fr, 20.05. 14:00 18 3 40 230° SW
Fr, 20.05. 8:00 11 2 22 250° W
Fr, 20.05. 2:00 7 2 25 120° SO
Do, 19.05. 20:00 13 3 46 240° SW
Do, 19.05. 14:00 14 3 36 240° SW
Do, 19.05. 8:00 0 0 22 - -
Do, 19.05. 2:00 14 3 25 140° SO
Mi, 18.05. 20:00 11 2 31 90° O
Ortszeit Stärke Spitze Richtung
km/h Bft. km/h Grad Sektor
Fr, 20.05. 18:10 18 3 - 260° W
Fr, 20.05. 18:00 18 3 50 290° W
Fr, 20.05. 17:50 18 3 - 290° W
Fr, 20.05. 17:40 19 3 - 300° NW
Fr, 20.05. 17:30 28 4 50 280° W
Fr, 20.05. 17:20 28 4 - 280° W
Fr, 20.05. 17:00 25 4 54 260° W
Fr, 20.05. 16:30 24 4 43 270° W
Fr, 20.05. 16:00 20 4 44 250° W
Fr, 20.05. 15:30 19 3 44 250° W
Ortszeit Untergrenze Bedeckung Gattung
total tief tief mittel hoch
Fr, 20.05. 14:00 8700 m 5/8 0/8 - - -
Fr, 20.05. 8:00 10500 m 5/8 0/8 - - -
Fr, 20.05. 2:00 3900 m 8/8 7/8 - - -
Do, 19.05. 20:00 3000 m 8/8 8/8 - - -
Do, 19.05. 14:00 7500 m 7/8 0/8 - - -
Do, 19.05. 8:00 7800 m 8/8 0/8 - - -
Do, 19.05. 2:00 9000 m 8/8 0/8 - - -
Mi, 18.05. 20:00 10500 m 4/8 0/8 - - -
Ortszeit Bedeckungsgrad in Achtel und Wolkenuntergrenze
Fr, 20.05. 18:10 8
Fr, 20.05. 18:00 1(1800m) 3(3000m) 8(3600m)
Fr, 20.05. 17:50 1(1800m) 3(3000m) 8(3600m)
Fr, 20.05. 17:40 8
Fr, 20.05. 17:30 1(1800m) 4(4200m) 6(6300m)
Fr, 20.05. 17:20 1(1800m) 4(4200m) 6(6300m)
Fr, 20.05. 17:00 2(2700m) 7(3900m) 8(4500m)
Fr, 20.05. 16:30 6(3600m) 7(9000m) 7(10500m)
Fr, 20.05. 16:00 2(10500m) 8(10500m)
Fr, 20.05. 15:30 2(4200m) 7(10500m)
Ortszeit Stationsdruck (hPa) Tendenz (hPa in 3 Std.)
Fr, 20.05. 14:00 928 - 2,3
Fr, 20.05. 8:00 931 + 0,1
Fr, 20.05. 2:00 932 + 0,1
Do, 19.05. 20:00 930 + 0,9
Do, 19.05. 14:00 930 - 0,5
Do, 19.05. 8:00 930 + 0,4
Do, 19.05. 2:00 930 - 0,2
Mi, 18.05. 20:00 930 - 0,3
Ortszeit Stationsdruck (hPa) Tendenz (hPa in 3 Std.)
Fr, 20.05. 18:10 927 keine Meldung
Fr, 20.05. 18:00 927 - 0,5
Fr, 20.05. 17:50 927 keine Meldung
Fr, 20.05. 17:40 927 keine Meldung
Fr, 20.05. 17:30 927 - 0,8
Fr, 20.05. 17:20 927 keine Meldung
Fr, 20.05. 17:00 927 - 1,5
Fr, 20.05. 16:30 927 - 1,5
Fr, 20.05. 16:00 927 - 2,9
Fr, 20.05. 15:30 927 - 3,2
Ortszeit Schneehöhe (cm)
Fr, 20.05. 14:00 0
Fr, 20.05. 8:00 0
Fr, 20.05. 2:00 0
Do, 19.05. 20:00 0
Do, 19.05. 14:00 0
Do, 19.05. 8:00 0
Do, 19.05. 2:00 0
Mi, 18.05. 20:00 0
Ortszeit Schneehöhe (cm)
Fr, 20.05. 18:10 0
Fr, 20.05. 18:00 0
Fr, 20.05. 17:50 0
Fr, 20.05. 17:40 0
Fr, 20.05. 17:30 0
Fr, 20.05. 17:20 0
Fr, 20.05. 17:00 0
Fr, 20.05. 16:30 0
Fr, 20.05. 16:00 0
Fr, 20.05. 15:30 0
Link zu dieser Seite / Seite empfehlen

Das Wetter in ...